createdAt,value
2023-02-20T00:01:55.286Z,1.25
2023-02-20T00:04:22.259Z,1.70
2023-02-20T00:06:49.246Z,1.10
2023-02-20T00:09:16.137Z,1.20
2023-02-20T00:11:43.097Z,0.90
2023-02-20T00:14:09.941Z,1.35
2023-02-20T00:16:36.759Z,1.10
2023-02-20T00:19:03.792Z,0.93
2023-02-20T00:21:30.706Z,1.30
2023-02-20T00:23:57.561Z,1.10
2023-02-20T00:26:24.409Z,1.10
2023-02-20T00:28:51.225Z,1.15
2023-02-20T00:31:21.257Z,0.73
2023-02-20T00:33:48.139Z,1.15
2023-02-20T00:36:20.523Z,1.63
2023-02-20T00:38:47.570Z,0.85
2023-02-20T00:41:15.845Z,1.20
2023-02-20T00:43:42.921Z,1.13
2023-02-20T00:46:15.159Z,1.10
2023-02-20T00:48:42.500Z,1.45
2023-02-20T00:51:29.642Z,1.08
2023-02-20T00:53:56.606Z,1.30
2023-02-20T00:56:26.084Z,1.25
2023-02-20T00:58:52.983Z,1.10
2023-02-20T01:01:19.984Z,1.42
2023-02-20T01:03:47.082Z,1.17
2023-02-20T01:06:15.223Z,1.40
2023-02-20T01:08:42.205Z,0.98
2023-02-20T01:11:09.162Z,1.45
2023-02-20T01:13:35.940Z,1.63
2023-02-20T01:16:02.938Z,1.17
2023-02-20T01:18:29.848Z,1.45
2023-02-20T01:20:56.700Z,1.38
2023-02-20T01:23:23.687Z,1.10
2023-02-20T01:25:50.565Z,0.90
2023-02-20T01:28:17.725Z,1.00
2023-02-20T01:30:44.622Z,1.10
2023-02-20T01:33:11.490Z,1.17
2023-02-20T01:35:38.279Z,1.48
2023-02-20T01:38:06.695Z,0.80
2023-02-20T01:40:34.941Z,0.93
2023-02-20T01:43:03.001Z,0.82
2023-02-20T01:45:34.408Z,0.70
2023-02-20T01:48:01.409Z,1.13
2023-02-20T01:50:37.039Z,1.05
2023-02-20T01:53:15.442Z,1.35
2023-02-20T01:55:56.227Z,1.13
2023-02-20T01:58:34.152Z,1.00
2023-02-20T02:01:01.521Z,1.15
2023-02-20T02:03:31.527Z,0.80
2023-02-20T02:06:00.909Z,1.17
2023-02-20T02:08:28.974Z,1.50
2023-02-20T02:11:04.854Z,1.00
2023-02-20T02:13:35.524Z,1.10
2023-02-20T02:16:32.048Z,0.90
2023-02-20T02:19:31.768Z,1.27
2023-02-20T02:22:25.484Z,1.27
2023-02-20T02:25:33.480Z,1.25
2023-02-20T02:28:32.384Z,1.40
2023-02-20T02:31:27.998Z,1.30
2023-02-20T02:34:29.319Z,1.45
2023-02-20T02:37:26.507Z,1.45
2023-02-20T02:40:14.976Z,1.15
2023-02-20T02:43:01.378Z,1.48
2023-02-20T02:45:35.585Z,1.30
2023-02-20T02:48:14.237Z,1.08
2023-02-20T02:50:44.038Z,1.42
2023-02-20T02:53:11.759Z,1.15
2023-02-20T02:55:38.679Z,1.27
2023-02-20T02:58:06.001Z,1.00
2023-02-20T03:00:38.087Z,0.90
2023-02-20T03:03:25.298Z,1.67
2023-02-20T03:06:03.876Z,1.17
2023-02-20T03:08:57.853Z,1.38
2023-02-20T03:11:28.204Z,1.38
2023-02-20T03:14:36.065Z,1.20
2023-02-20T03:17:13.884Z,1.50
2023-02-20T03:19:47.236Z,1.80
2023-02-20T03:22:26.108Z,1.70
2023-02-20T03:24:58.100Z,1.52
2023-02-20T03:27:52.712Z,1.50
2023-02-20T03:30:24.316Z,1.60
2023-02-20T03:33:15.034Z,1.05
2023-02-20T03:36:03.856Z,1.27
2023-02-20T03:38:52.309Z,1.67
2023-02-20T03:41:40.330Z,1.75
2023-02-20T03:44:08.312Z,1.73
2023-02-20T03:46:37.839Z,1.35
2023-02-20T03:49:10.248Z,1.20
2023-02-20T03:52:01.176Z,1.95
2023-02-20T03:54:38.197Z,1.60
2023-02-20T03:57:19.710Z,1.50
2023-02-20T04:00:12.571Z,1.35
2023-02-20T04:02:45.032Z,1.17
2023-02-20T04:05:20.435Z,1.80
2023-02-20T04:07:52.079Z,1.63
2023-02-20T04:10:25.099Z,1.70
2023-02-20T04:12:53.459Z,1.70
2023-02-20T04:15:21.217Z,1.65
2023-02-20T04:17:55.784Z,2.25
2023-02-20T04:20:23.006Z,1.95
2023-02-20T04:23:07.526Z,2.00
2023-02-20T04:25:41.613Z,2.10
2023-02-20T04:28:08.962Z,1.80
2023-02-20T04:30:46.917Z,2.05
2023-02-20T04:33:14.843Z,1.58
2023-02-20T04:35:43.403Z,1.90
2023-02-20T04:38:10.414Z,1.73
2023-02-20T04:40:38.155Z,2.40
2023-02-20T04:43:05.536Z,2.10
2023-02-20T04:45:32.888Z,2.13
2023-02-20T04:47:59.720Z,2.72
2023-02-20T04:50:30.568Z,2.70
2023-02-20T04:52:58.178Z,2.83
2023-02-20T04:55:26.453Z,3.90
2023-02-20T04:57:57.966Z,2.95
2023-02-20T05:00:28.456Z,2.80
2023-02-20T05:02:55.462Z,3.08
2023-02-20T05:05:27.768Z,2.80
2023-02-20T05:07:56.959Z,2.80
2023-02-20T05:10:25.254Z,3.05
2023-02-20T05:12:52.541Z,2.83
2023-02-20T05:15:20.197Z,3.10
2023-02-20T05:17:47.212Z,2.70
2023-02-20T05:20:15.402Z,2.22
2023-02-20T05:22:42.284Z,2.63
2023-02-20T05:25:09.236Z,2.22
2023-02-20T05:27:36.179Z,2.53
2023-02-20T05:30:03.490Z,2.22
2023-02-20T05:32:31.214Z,2.40
2023-02-20T05:34:58.025Z,2.58
2023-02-20T05:37:26.624Z,4.05
2023-02-20T05:39:53.907Z,4.20
2023-02-20T05:42:22.931Z,4.38
2023-02-20T05:44:50.129Z,6.72
2023-02-20T05:47:17.861Z,4.55
2023-02-20T05:49:44.790Z,3.20
2023-02-20T05:52:13.134Z,3.40
2023-02-20T05:54:41.016Z,3.72
2023-02-20T05:57:08.642Z,3.08
2023-02-20T05:59:35.548Z,3.25
2023-02-20T06:02:02.513Z,3.28
2023-02-20T06:04:30.006Z,4.85
2023-02-20T06:06:56.870Z,5.03
2023-02-20T06:09:23.806Z,5.07
2023-02-20T06:11:53.738Z,4.90
2023-02-20T06:14:21.946Z,4.53
2023-02-20T06:16:48.879Z,3.90
2023-02-20T06:19:24.561Z,8.05
2023-02-20T06:21:53.734Z,9.38
2023-02-20T06:24:21.548Z,9.77
2023-02-20T06:26:48.462Z,5.05
2023-02-20T06:29:16.656Z,5.95
2023-02-20T06:31:44.208Z,7.75
2023-02-20T06:34:11.568Z,5.30
2023-02-20T06:36:40.006Z,4.20
2023-02-20T06:39:08.958Z,5.10
2023-02-20T06:41:35.856Z,3.58
2023-02-20T06:44:02.893Z,3.13
2023-02-20T06:46:29.919Z,3.38
2023-02-20T06:48:58.324Z,3.88
2023-02-20T06:51:28.278Z,2.95
2023-02-20T06:53:55.129Z,2.80
2023-02-20T06:56:24.732Z,3.38
2023-02-20T06:58:53.313Z,3.03
2023-02-20T07:01:22.401Z,3.20
2023-02-20T07:03:49.614Z,3.00
2023-02-20T07:06:17.548Z,1.88
2023-02-20T07:08:44.549Z,2.97
2023-02-20T07:11:12.421Z,2.95
2023-02-20T07:13:39.351Z,3.03
2023-02-20T07:16:06.772Z,2.78
2023-02-20T07:18:33.826Z,3.40
2023-02-20T07:21:00.745Z,2.90
2023-02-20T07:23:27.629Z,3.20
2023-02-20T07:25:54.649Z,2.97
2023-02-20T07:28:21.721Z,2.42
2023-02-20T07:30:51.790Z,2.67
2023-02-20T07:33:19.471Z,2.78
2023-02-20T07:35:46.434Z,3.08
2023-02-20T07:38:14.956Z,4.30
2023-02-20T07:40:41.982Z,4.63
2023-02-20T07:43:09.017Z,4.50
2023-02-20T07:45:39.488Z,3.92
2023-02-20T07:48:06.525Z,3.15
2023-02-20T07:50:34.476Z,2.85
2023-02-20T07:53:01.446Z,2.45
2023-02-20T07:55:28.503Z,3.17
2023-02-20T07:57:58.546Z,2.92
2023-02-20T08:00:27.012Z,2.88
2023-02-20T08:02:54.327Z,3.30
2023-02-20T08:05:21.532Z,3.83
2023-02-20T08:07:49.969Z,3.53
2023-02-20T08:10:19.427Z,2.90
2023-02-20T08:12:47.471Z,2.97
2023-02-20T08:15:14.721Z,2.22
2023-02-20T08:17:46.968Z,2.30
2023-02-20T08:20:16.201Z,2.83
2023-02-20T08:22:44.534Z,3.20
2023-02-20T08:25:11.933Z,3.10
2023-02-20T08:27:43.047Z,14.43
2023-02-20T08:30:14.088Z,13.75
2023-02-20T08:32:41.174Z,3.65
2023-02-20T08:35:08.308Z,3.80
2023-02-20T08:37:35.252Z,10.00
2023-02-20T08:40:06.841Z,3.50
2023-02-20T08:42:34.275Z,3.30
2023-02-20T08:45:03.374Z,4.22
2023-02-20T08:47:30.307Z,3.38
2023-02-20T08:49:57.404Z,3.15
2023-02-20T08:52:24.395Z,4.35
2023-02-20T08:54:51.392Z,3.50
2023-02-20T08:57:19.098Z,4.00
2023-02-20T08:59:46.336Z,4.00
2023-02-20T09:02:22.224Z,3.75
2023-02-20T09:04:49.316Z,3.55
2023-02-20T09:07:16.457Z,3.17
2023-02-20T09:09:43.439Z,3.17
2023-02-20T09:12:10.576Z,3.42
2023-02-20T09:14:38.096Z,1.67
2023-02-20T09:17:05.847Z,3.00
2023-02-20T09:19:33.210Z,1.55
2023-02-20T09:22:00.497Z,2.42
2023-02-20T09:24:32.289Z,2.28
2023-02-20T09:29:26.177Z,2.50
2023-02-20T09:31:53.350Z,2.45
2023-02-20T09:34:21.468Z,3.05
2023-02-20T09:36:48.619Z,3.50
2023-02-20T09:39:18.036Z,3.38
2023-02-20T09:42:09.498Z,3.28
2023-02-20T09:45:13.459Z,3.65
2023-02-20T09:48:16.165Z,3.75
2023-02-20T09:50:57.356Z,3.83
2023-02-20T09:53:46.613Z,2.65
2023-02-20T09:56:21.458Z,4.25
2023-02-20T09:59:13.361Z,4.25
2023-02-20T10:01:46.736Z,4.82
2023-02-20T10:04:16.190Z,3.85
2023-02-20T10:06:44.717Z,4.90
2023-02-20T10:09:14.106Z,4.25
2023-02-20T10:12:12.181Z,6.20
2023-02-20T10:14:56.501Z,3.00
2023-02-20T10:17:42.697Z,6.10
2023-02-20T10:20:36.879Z,5.07
2023-02-20T10:23:33.860Z,7.07
2023-02-20T10:26:04.663Z,7.30
2023-02-20T10:28:32.251Z,6.72
2023-02-20T10:31:08.066Z,7.35
2023-02-20T10:33:44.287Z,5.45
2023-02-20T10:36:37.453Z,7.30
2023-02-20T10:39:11.425Z,7.35
2023-02-20T10:41:51.282Z,7.55
2023-02-20T10:44:37.619Z,6.55
2023-02-20T10:47:43.052Z,3.95
2023-02-20T10:50:15.767Z,5.43
2023-02-20T10:52:52.668Z,5.97
2023-02-20T10:55:59.919Z,4.63
2023-02-20T10:58:53.023Z,4.65
2023-02-20T11:01:23.283Z,4.45
2023-02-20T11:04:15.672Z,3.55
2023-02-20T11:06:47.066Z,5.00
2023-02-20T11:09:14.225Z,4.68
2023-02-20T11:11:45.280Z,3.70
2023-02-20T11:14:27.875Z,3.40
2023-02-20T11:17:08.295Z,3.83
2023-02-20T11:19:47.138Z,3.90
2023-02-20T11:22:15.879Z,3.55
2023-02-20T11:24:44.804Z,3.10
2023-02-20T11:27:23.016Z,3.58
2023-02-20T11:29:55.407Z,4.22
2023-02-20T11:32:26.611Z,3.70
2023-02-20T11:35:05.386Z,3.47
2023-02-20T11:37:37.863Z,5.22
2023-02-20T11:40:28.358Z,3.28
2023-02-20T11:42:55.660Z,4.45
2023-02-20T11:45:27.870Z,5.18
2023-02-20T11:48:11.444Z,5.60
2023-02-20T11:50:44.541Z,7.97
2023-02-20T11:53:23.525Z,5.28
2023-02-20T11:56:14.501Z,4.68
2023-02-20T11:58:42.782Z,5.53
2023-02-20T12:01:31.317Z,6.78
2023-02-20T12:03:59.720Z,4.25
2023-02-20T12:06:43.068Z,6.60
2023-02-20T12:09:17.695Z,6.90
2023-02-20T12:11:45.325Z,6.10
2023-02-20T12:14:14.164Z,5.32
2023-02-20T12:17:04.113Z,7.00
2023-02-20T12:19:55.254Z,4.82
2023-02-20T12:22:37.175Z,6.18
2023-02-20T12:25:36.893Z,4.30
2023-02-20T12:28:22.595Z,4.78
2023-02-20T12:31:02.249Z,3.58
2023-02-20T12:33:48.277Z,4.43
2023-02-20T12:36:28.897Z,4.65
2023-02-20T12:39:00.215Z,3.42
2023-02-20T12:41:32.679Z,1.85
2023-02-20T12:44:35.758Z,2.60
2023-02-20T12:47:27.336Z,4.32
2023-02-20T12:50:24.585Z,3.58
2023-02-20T12:53:18.438Z,2.60
2023-02-20T12:56:21.516Z,4.00
2023-02-20T12:59:00.722Z,2.05
2023-02-20T13:01:39.103Z,4.60
2023-02-20T13:04:27.845Z,4.38
2023-02-20T13:07:08.177Z,2.13
2023-02-20T13:09:44.937Z,3.28
2023-02-20T13:12:16.789Z,3.85
2023-02-20T13:17:58.918Z,5.60
2023-02-20T13:20:28.735Z,4.93
2023-02-20T13:23:04.615Z,5.45
2023-02-20T13:25:42.598Z,3.05
2023-02-20T13:28:45.793Z,3.22
2023-02-20T13:31:19.946Z,2.67
2023-02-20T13:33:50.336Z,5.95
2023-02-20T13:36:38.896Z,3.47
2023-02-20T13:39:36.657Z,5.07
2023-02-20T13:42:24.996Z,2.80
2023-02-20T13:44:52.719Z,2.42
2023-02-20T13:47:34.759Z,3.47
2023-02-20T13:52:56.237Z,2.00
2023-02-20T13:55:26.180Z,2.65
2023-02-20T13:58:06.086Z,3.90
2023-02-20T14:00:54.484Z,3.40
2023-02-20T14:03:29.247Z,3.10
2023-02-20T14:06:17.019Z,2.95
2023-02-20T14:08:45.923Z,2.25
2023-02-20T14:11:33.855Z,2.80
2023-02-20T14:14:06.497Z,1.67
2023-02-20T14:16:36.376Z,2.67
2023-02-20T14:19:08.057Z,2.05
2023-02-20T14:24:24.539Z,3.10
2023-02-20T14:26:56.497Z,2.60
2023-02-20T14:29:31.881Z,2.00
2023-02-20T14:32:01.089Z,1.60
2023-02-20T14:34:44.478Z,1.80
2023-02-20T14:37:30.741Z,2.97
2023-02-20T14:40:18.437Z,2.22
2023-02-20T14:42:46.541Z,2.65
2023-02-20T14:45:25.321Z,3.08
2023-02-20T14:47:56.716Z,4.15
2023-02-20T14:50:30.602Z,3.15
2023-02-20T14:53:21.557Z,2.85
2023-02-20T14:55:50.287Z,1.70
2023-02-20T14:58:21.260Z,2.28
2023-02-20T15:00:49.158Z,0.73
2023-02-20T15:03:30.794Z,2.28
2023-02-20T15:08:33.384Z,1.10
2023-02-20T15:11:08.340Z,1.50
2023-02-20T15:13:38.538Z,1.75
2023-02-20T15:16:08.584Z,1.90
2023-02-20T15:18:38.916Z,0.70
2023-02-20T15:21:06.563Z,1.08
2023-02-20T15:23:36.733Z,1.40
2023-02-20T15:26:33.876Z,1.75
2023-02-20T15:29:11.827Z,1.90
2023-02-20T15:31:38.951Z,2.65
2023-02-20T15:34:14.320Z,1.88
2023-02-20T15:36:41.932Z,1.30
2023-02-20T15:39:11.439Z,1.63
2023-02-20T15:41:38.861Z,1.90
2023-02-20T15:44:05.840Z,3.47
2023-02-20T15:46:32.883Z,2.67
2023-02-20T15:49:01.797Z,2.70
2023-02-20T15:51:30.585Z,2.35
2023-02-20T15:53:58.161Z,2.83
2023-02-20T15:56:28.419Z,1.50
2023-02-20T15:58:55.446Z,1.67
2023-02-20T16:01:22.453Z,2.40
2023-02-20T16:03:52.822Z,2.92
2023-02-20T16:06:22.390Z,3.13
2023-02-20T16:08:50.719Z,3.45
2023-02-20T16:11:19.239Z,3.83
2023-02-20T16:13:47.492Z,1.85
2023-02-20T16:16:25.218Z,1.60
2023-02-20T16:18:55.240Z,2.88
2023-02-20T16:21:23.874Z,2.75
2023-02-20T16:23:51.231Z,2.08
2023-02-20T16:26:19.424Z,2.60
2023-02-20T16:28:55.380Z,2.13
2023-02-20T16:31:22.508Z,3.05
2023-02-20T16:33:49.606Z,2.28
2023-02-20T16:36:24.386Z,2.58
2023-02-20T16:38:52.007Z,2.65
2023-02-20T16:41:18.947Z,2.58
2023-02-20T16:43:45.896Z,1.95
2023-02-20T16:46:13.627Z,2.22
2023-02-20T16:48:43.446Z,1.60
2023-02-20T16:51:11.646Z,2.00
2023-02-20T16:53:38.532Z,1.85
2023-02-20T16:56:05.725Z,1.75
2023-02-20T16:58:32.752Z,1.65
2023-02-20T17:00:59.693Z,1.30
2023-02-20T17:03:27.993Z,2.08
2023-02-20T17:05:59.923Z,1.63
2023-02-20T17:08:27.664Z,2.72
2023-02-20T17:10:54.879Z,3.25
2023-02-20T17:13:21.973Z,2.67
2023-02-20T17:15:49.052Z,2.10
2023-02-20T17:18:16.042Z,1.70
2023-02-20T17:20:43.125Z,2.30
2023-02-20T17:23:10.298Z,2.45
2023-02-20T17:25:37.296Z,3.30
2023-02-20T17:28:05.564Z,3.00
2023-02-20T17:30:32.776Z,4.15
2023-02-20T17:33:00.012Z,4.00
2023-02-20T17:35:26.913Z,2.33
2023-02-20T17:37:53.995Z,3.00
2023-02-20T17:40:31.249Z,7.28
2023-02-20T17:43:00.494Z,3.90
2023-02-20T17:45:27.553Z,2.63
2023-02-20T17:47:54.702Z,2.88
2023-02-20T17:50:21.849Z,3.65
2023-02-20T17:52:55.261Z,5.93
2023-02-20T17:55:25.166Z,2.80
2023-02-20T17:57:56.688Z,2.85
2023-02-20T18:00:24.475Z,2.78
2023-02-20T18:02:51.347Z,5.05
2023-02-20T18:05:22.506Z,5.43
2023-02-20T18:10:19.314Z,5.45
2023-02-20T18:13:02.784Z,9.30
2023-02-20T18:15:34.961Z,43.08
2023-02-20T18:20:34.005Z,6.60
2023-02-20T18:23:02.651Z,6.70
2023-02-20T18:25:40.109Z,3.92
2023-02-20T18:28:09.591Z,3.40
2023-02-20T18:30:36.580Z,4.75
2023-02-20T18:33:03.716Z,3.05
2023-02-20T18:35:30.773Z,3.78
2023-02-20T18:37:58.867Z,3.58
2023-02-20T18:40:25.846Z,2.40
2023-02-20T18:42:53.320Z,3.05
2023-02-20T18:45:22.407Z,4.95
2023-02-20T18:47:51.523Z,2.80
2023-02-20T18:50:18.899Z,3.38
2023-02-20T18:52:48.023Z,2.15
2023-02-20T18:55:17.770Z,2.92
2023-02-20T18:57:47.092Z,2.95
2023-02-20T19:00:17.975Z,2.88
2023-02-20T19:02:45.570Z,2.22
2023-02-20T19:05:13.699Z,4.35
2023-02-20T19:07:42.419Z,3.60
2023-02-20T19:10:11.875Z,3.25
2023-02-20T19:12:39.316Z,4.00
2023-02-20T19:15:07.614Z,5.45
2023-02-20T19:17:35.229Z,4.10
2023-02-20T19:20:03.941Z,3.35
2023-02-20T19:22:31.024Z,3.47
2023-02-20T19:24:58.180Z,3.33
2023-02-20T19:27:25.874Z,2.95
2023-02-20T19:29:53.226Z,4.35
2023-02-20T19:32:20.429Z,3.42
2023-02-20T19:34:48.231Z,2.75
2023-02-20T19:37:16.670Z,3.20
2023-02-20T19:39:43.673Z,3.72
2023-02-20T19:42:10.604Z,4.85
2023-02-20T19:44:38.508Z,4.45
2023-02-20T19:47:05.954Z,3.53
2023-02-20T19:49:33.787Z,4.50
2023-02-20T19:52:00.875Z,7.78
2023-02-20T19:54:30.127Z,27.60
2023-02-20T19:56:59.586Z,95.55
2023-02-20T19:59:28.245Z,149.57
2023-02-20T20:01:57.788Z,85.47
2023-02-20T20:04:26.928Z,22.15
2023-02-20T20:06:54.507Z,5.75
2023-02-20T20:09:35.286Z,35.22
2023-02-20T20:12:04.185Z,7.63
2023-02-20T20:14:31.259Z,4.90
2023-02-20T20:16:58.197Z,4.22
2023-02-20T20:19:25.470Z,5.63
2023-02-20T20:21:52.427Z,5.07
2023-02-20T20:24:19.380Z,3.42
2023-02-20T20:26:46.389Z,2.67
2023-02-20T20:29:13.382Z,2.60
2023-02-20T20:31:41.764Z,2.42
2023-02-20T20:34:09.180Z,4.35
2023-02-20T20:36:36.357Z,3.33
2023-02-20T20:39:04.336Z,2.78
2023-02-20T20:41:44.046Z,1.95
2023-02-20T20:44:12.184Z,2.55
2023-02-20T20:46:39.431Z,3.55
2023-02-20T20:49:06.439Z,2.60
2023-02-20T20:51:37.721Z,4.80
2023-02-20T20:54:07.373Z,7.25
2023-02-20T20:56:35.164Z,5.85
2023-02-20T20:59:07.511Z,87.20
2023-02-20T21:01:37.178Z,106.32
2023-02-20T21:04:04.996Z,39.35
2023-02-20T21:06:35.457Z,4.85
2023-02-20T21:09:06.618Z,3.17
2023-02-20T21:11:35.422Z,2.55
2023-02-20T21:14:03.894Z,3.75
2023-02-20T21:19:41.467Z,2.55
2023-02-20T21:22:08.594Z,2.60
2023-02-20T21:24:36.839Z,2.50
2023-02-20T21:27:04.774Z,2.28
2023-02-20T21:29:32.298Z,2.67
2023-02-20T21:31:59.273Z,3.03
2023-02-20T21:34:27.387Z,3.20
2023-02-20T21:36:54.556Z,3.40
2023-02-20T21:39:23.112Z,2.47
2023-02-20T21:42:10.967Z,2.92
2023-02-20T21:44:39.651Z,2.70
2023-02-20T21:47:09.892Z,2.80
2023-02-20T21:49:41.850Z,3.60
2023-02-20T21:52:08.808Z,2.33
2023-02-20T21:54:36.064Z,3.20
2023-02-20T21:57:03.016Z,3.50
2023-02-20T21:59:29.878Z,1.70
2023-02-20T22:01:57.207Z,3.42
2023-02-20T22:04:25.175Z,2.30
2023-02-20T22:07:12.110Z,3.58
2023-02-20T22:09:58.910Z,2.35
2023-02-20T22:12:46.066Z,3.67
2023-02-20T22:15:42.151Z,2.95
2023-02-20T22:18:29.126Z,2.58
2023-02-20T22:21:16.360Z,3.25
2023-02-20T22:24:03.277Z,3.45
2023-02-20T22:26:50.106Z,2.50
2023-02-20T22:29:36.943Z,3.03
2023-02-20T22:32:24.071Z,2.83
2023-02-20T22:35:12.382Z,2.65
2023-02-20T22:37:59.566Z,2.92
2023-02-20T22:40:46.351Z,2.35
2023-02-20T22:43:33.645Z,3.38
2023-02-20T22:46:20.523Z,2.65
2023-02-20T22:49:07.339Z,3.17
2023-02-20T22:51:54.165Z,15.98
2023-02-20T22:54:43.583Z,27.70
2023-02-20T22:57:31.528Z,5.75
2023-02-20T23:00:18.390Z,5.70
2023-02-20T23:03:05.235Z,3.08
2023-02-20T23:05:52.085Z,4.07
2023-02-20T23:08:38.938Z,2.90
2023-02-20T23:11:26.195Z,2.75
2023-02-20T23:14:13.030Z,2.47
2023-02-20T23:16:59.811Z,3.00
2023-02-20T23:19:46.709Z,3.13
2023-02-20T23:22:33.468Z,2.35
2023-02-20T23:25:20.376Z,2.17
2023-02-20T23:28:09.647Z,2.78
2023-02-20T23:30:56.543Z,3.78
2023-02-20T23:33:43.302Z,2.60
2023-02-20T23:36:30.258Z,1.73
2023-02-20T23:39:17.190Z,2.30
2023-02-20T23:42:05.094Z,2.55
2023-02-20T23:44:51.873Z,2.28
2023-02-20T23:47:38.720Z,2.90
2023-02-20T23:50:25.834Z,3.42
2023-02-20T23:53:12.806Z,1.48
2023-02-20T23:55:59.665Z,2.83
2023-02-20T23:58:46.525Z,2.13
